createdAt,value
2022-12-01T00:01:24.895Z,4.31
2022-12-01T00:03:52.104Z,4.35
2022-12-01T00:06:20.955Z,3.40
2022-12-01T00:09:08.599Z,3.45
2022-12-01T00:11:37.487Z,4.16
2022-12-01T00:14:05.439Z,4.24
2022-12-01T00:16:32.985Z,3.38
2022-12-01T00:19:00.300Z,4.25
2022-12-01T00:21:28.046Z,4.32
2022-12-01T00:23:57.695Z,4.34
2022-12-01T00:26:26.491Z,4.13
2022-12-01T00:28:56.811Z,3.68
2022-12-01T00:31:24.900Z,4.28
2022-12-01T00:33:52.093Z,4.28
2022-12-01T00:36:19.281Z,3.52
2022-12-01T00:38:46.980Z,4.19
2022-12-01T00:41:14.240Z,4.16
2022-12-01T00:43:41.539Z,4.05
2022-12-01T00:46:08.741Z,4.15
2022-12-01T00:48:36.130Z,3.25
2022-12-01T00:51:03.427Z,3.79
2022-12-01T00:53:31.065Z,4.17
2022-12-01T00:55:58.296Z,4.12
2022-12-01T00:58:25.896Z,4.09
2022-12-01T01:01:01.244Z,4.10
2022-12-01T01:03:30.494Z,4.05
2022-12-01T01:06:05.151Z,4.01
2022-12-01T01:08:32.450Z,3.82
2022-12-01T01:11:00.932Z,4.11
2022-12-01T01:13:29.154Z,4.16
2022-12-01T01:16:15.087Z,4.23
2022-12-01T01:18:42.551Z,4.28
2022-12-01T01:21:13.953Z,3.79
2022-12-01T01:23:41.435Z,4.20
2022-12-01T01:26:15.957Z,3.82
2022-12-01T01:28:45.375Z,4.17
2022-12-01T01:31:14.895Z,3.85
2022-12-01T01:33:42.909Z,4.35
2022-12-01T01:36:10.411Z,3.99
2022-12-01T01:38:37.682Z,3.90
2022-12-01T01:41:07.327Z,3.95
2022-12-01T01:43:51.385Z,4.17
2022-12-01T01:46:24.653Z,3.79
2022-12-01T01:48:51.662Z,4.28
2022-12-01T01:51:27.389Z,4.24
2022-12-01T01:53:59.056Z,3.99
2022-12-01T01:56:26.245Z,4.19
2022-12-01T01:58:53.618Z,3.95
2022-12-01T02:01:21.017Z,4.27
2022-12-01T02:03:50.995Z,3.95
2022-12-01T02:06:18.189Z,4.02
2022-12-01T02:08:45.223Z,4.11
2022-12-01T02:11:48.780Z,4.09
2022-12-01T02:14:31.723Z,4.00
2022-12-01T02:17:04.945Z,4.09
2022-12-01T02:19:56.501Z,4.06
2022-12-01T02:22:41.971Z,4.15
2022-12-01T02:25:39.774Z,4.17
2022-12-01T02:28:25.664Z,4.02
2022-12-01T02:31:04.778Z,3.89
2022-12-01T02:33:51.600Z,3.96
2022-12-01T02:36:43.674Z,4.08
2022-12-01T02:39:23.274Z,4.03
2022-12-01T02:41:54.563Z,4.10
2022-12-01T02:44:31.260Z,4.04
2022-12-01T02:47:19.076Z,4.05
2022-12-01T02:49:52.393Z,4.15
2022-12-01T02:52:23.891Z,4.03
2022-12-01T02:54:52.224Z,4.09
2022-12-01T02:57:20.105Z,3.96
2022-12-01T02:59:54.537Z,3.96
2022-12-01T03:02:43.776Z,3.94
2022-12-01T03:05:34.648Z,3.85
2022-12-01T03:08:46.566Z,3.89
2022-12-01T03:11:27.376Z,3.82
2022-12-01T03:13:59.670Z,3.87
2022-12-01T03:16:40.176Z,3.60
2022-12-01T03:19:18.138Z,3.86
2022-12-01T03:22:01.876Z,3.77
2022-12-01T03:24:33.136Z,2.92
2022-12-01T03:27:03.849Z,3.93
2022-12-01T03:29:38.926Z,3.99
2022-12-01T03:32:20.340Z,4.08
2022-12-01T03:35:04.582Z,3.87
2022-12-01T03:37:36.468Z,3.90
2022-12-01T03:40:08.910Z,3.76
2022-12-01T03:42:42.245Z,3.93
2022-12-01T03:45:17.092Z,3.97
2022-12-01T03:47:45.043Z,3.48
2022-12-01T03:50:14.311Z,3.83
2022-12-01T03:52:57.988Z,3.83
2022-12-01T03:55:27.705Z,3.68
2022-12-01T03:58:17.338Z,3.79
2022-12-01T04:00:46.602Z,3.73
2022-12-01T04:03:19.225Z,3.63
2022-12-01T04:05:47.004Z,3.61
2022-12-01T04:08:14.700Z,3.11
2022-12-01T04:10:42.023Z,3.77
2022-12-01T04:13:16.733Z,3.34
2022-12-01T04:15:44.349Z,3.41
2022-12-01T04:18:11.538Z,3.40
2022-12-01T04:20:38.666Z,3.23
2022-12-01T04:23:06.084Z,3.61
2022-12-01T04:25:33.400Z,3.28
2022-12-01T04:28:00.488Z,3.47
2022-12-01T04:30:27.669Z,3.61
2022-12-01T04:32:54.831Z,3.44
2022-12-01T04:35:21.984Z,3.56
2022-12-01T04:37:49.063Z,3.58
2022-12-01T04:40:16.312Z,3.64
2022-12-01T04:42:43.461Z,3.71
2022-12-01T04:45:10.885Z,3.71
2022-12-01T04:47:38.010Z,3.72
2022-12-01T04:50:05.801Z,3.63
2022-12-01T04:52:36.742Z,3.70
2022-12-01T04:55:04.553Z,3.68
2022-12-01T04:57:31.757Z,3.00
2022-12-01T04:59:58.914Z,3.21
2022-12-01T05:02:26.220Z,3.62
2022-12-01T05:04:53.438Z,3.29
2022-12-01T05:07:20.795Z,3.58
2022-12-01T05:09:48.486Z,3.60
2022-12-01T05:12:17.593Z,3.69
2022-12-01T05:14:44.711Z,3.73
2022-12-01T05:17:12.228Z,3.67
2022-12-01T05:19:57.849Z,3.48
2022-12-01T05:22:42.870Z,3.57
2022-12-01T05:25:12.073Z,3.76
2022-12-01T05:27:39.441Z,3.87
2022-12-01T05:30:07.411Z,3.88
2022-12-01T05:32:34.576Z,3.59
2022-12-01T05:35:01.793Z,3.63
2022-12-01T05:37:33.409Z,3.80
2022-12-01T05:40:01.488Z,3.69
2022-12-01T05:42:29.065Z,3.71
2022-12-01T05:44:56.233Z,2.82
2022-12-01T05:47:23.247Z,3.76
2022-12-01T05:49:51.416Z,4.01
2022-12-01T05:52:18.590Z,4.01
2022-12-01T05:54:45.967Z,4.61
2022-12-01T05:57:13.061Z,4.31
2022-12-01T05:59:40.875Z,3.87
2022-12-01T06:02:08.205Z,3.93
2022-12-01T06:04:35.928Z,3.47
2022-12-01T06:07:03.380Z,3.82
2022-12-01T06:09:30.420Z,3.68
2022-12-01T06:11:57.694Z,3.73
2022-12-01T06:14:24.998Z,3.88
2022-12-01T06:16:52.114Z,3.47
2022-12-01T06:19:19.272Z,3.21
2022-12-01T06:21:46.396Z,3.85
2022-12-01T06:24:13.645Z,3.85
2022-12-01T06:26:40.834Z,3.14
2022-12-01T06:29:07.905Z,3.52
2022-12-01T06:31:35.207Z,3.57
2022-12-01T06:34:02.486Z,3.95
2022-12-01T06:36:29.661Z,4.24
2022-12-01T06:38:56.816Z,3.81
2022-12-01T06:41:24.000Z,4.27
2022-12-01T06:43:51.106Z,3.89
2022-12-01T06:46:18.509Z,4.38
2022-12-01T06:48:48.844Z,4.34
2022-12-01T06:51:16.007Z,4.28
2022-12-01T06:53:43.435Z,4.28
2022-12-01T06:56:10.914Z,3.98
2022-12-01T07:02:40.398Z,4.11
2022-12-01T07:05:08.124Z,3.86
2022-12-01T07:07:40.171Z,3.52
2022-12-01T07:10:09.103Z,4.00
2022-12-01T07:12:36.504Z,4.21
2022-12-01T07:15:05.396Z,3.92
2022-12-01T07:17:32.762Z,3.47
2022-12-01T07:20:00.225Z,3.76
2022-12-01T07:22:32.661Z,3.10
2022-12-01T07:25:00.187Z,3.57
2022-12-01T07:27:30.331Z,3.89
2022-12-01T07:29:57.820Z,3.96
2022-12-01T07:32:25.077Z,3.81
2022-12-01T07:34:52.252Z,3.75
2022-12-01T07:37:19.485Z,4.12
2022-12-01T07:39:46.815Z,3.95
2022-12-01T07:42:14.150Z,4.12
2022-12-01T07:44:41.432Z,3.86
2022-12-01T07:47:08.575Z,4.08
2022-12-01T07:49:35.856Z,3.85
2022-12-01T07:52:02.987Z,4.15
2022-12-01T07:54:30.171Z,4.17
2022-12-01T07:56:57.208Z,4.00
2022-12-01T07:59:24.457Z,4.15
2022-12-01T08:01:51.918Z,4.10
2022-12-01T08:04:18.994Z,4.09
2022-12-01T08:06:46.256Z,4.18
2022-12-01T08:09:13.297Z,4.23
2022-12-01T08:11:40.473Z,4.47
2022-12-01T08:14:07.761Z,4.35
2022-12-01T08:16:35.063Z,4.23
2022-12-01T08:19:02.157Z,4.41
2022-12-01T08:21:29.477Z,4.45
2022-12-01T08:23:58.109Z,4.45
2022-12-01T08:26:26.389Z,4.52
2022-12-01T08:28:53.849Z,4.41
2022-12-01T08:31:27.193Z,4.35
2022-12-01T08:33:54.827Z,4.34
2022-12-01T08:36:23.253Z,4.10
2022-12-01T08:38:54.444Z,4.38
2022-12-01T08:41:22.266Z,4.27
2022-12-01T08:43:58.269Z,4.19
2022-12-01T08:46:32.855Z,4.24
2022-12-01T08:49:00.966Z,3.77
2022-12-01T08:51:29.047Z,4.35
2022-12-01T08:53:58.001Z,4.24
2022-12-01T08:56:37.674Z,4.33
2022-12-01T08:59:05.836Z,4.35
2022-12-01T09:01:33.844Z,4.31
2022-12-01T09:04:06.126Z,4.27
2022-12-01T09:06:39.748Z,4.23
2022-12-01T09:09:08.185Z,4.49
2022-12-01T09:11:35.678Z,3.74
2022-12-01T09:14:02.994Z,4.12
2022-12-01T09:16:30.529Z,4.60
2022-12-01T09:18:58.243Z,4.39
2022-12-01T09:21:31.423Z,4.60
2022-12-01T09:24:00.502Z,4.47
2022-12-01T09:26:28.587Z,4.44
2022-12-01T09:28:58.674Z,4.38
2022-12-01T09:31:26.367Z,4.19
2022-12-01T09:33:59.462Z,4.24
2022-12-01T09:36:27.638Z,4.34
2022-12-01T09:38:54.971Z,4.28
2022-12-01T09:41:22.085Z,4.25
2022-12-01T09:44:16.724Z,4.23
2022-12-01T09:46:47.154Z,4.24
2022-12-01T09:49:36.203Z,4.17
2022-12-01T09:52:03.467Z,3.46
2022-12-01T09:54:30.697Z,4.07
2022-12-01T09:56:59.647Z,4.10
2022-12-01T09:59:31.208Z,4.09
2022-12-01T10:02:38.541Z,4.11
2022-12-01T10:05:31.675Z,4.06
2022-12-01T10:08:03.902Z,4.13
2022-12-01T10:10:40.926Z,3.91
2022-12-01T10:13:20.895Z,4.33
2022-12-01T10:15:54.416Z,4.39
2022-12-01T10:18:47.651Z,4.39
2022-12-01T10:21:27.778Z,4.23
2022-12-01T10:23:54.981Z,4.42
2022-12-01T10:26:31.722Z,4.31
2022-12-01T10:29:20.642Z,3.72
2022-12-01T10:31:55.434Z,4.33
2022-12-01T10:34:29.696Z,4.13
2022-12-01T10:36:58.240Z,3.80
2022-12-01T10:39:38.768Z,3.56
2022-12-01T10:42:17.881Z,5.99
2022-12-01T10:44:46.121Z,7.17
2022-12-01T10:47:24.427Z,6.73
2022-12-01T10:49:55.422Z,5.42
2022-12-01T10:52:40.972Z,5.16
2022-12-01T10:55:23.428Z,4.94
2022-12-01T10:57:52.420Z,4.84
2022-12-01T11:03:30.891Z,4.54
2022-12-01T11:06:01.013Z,4.31
2022-12-01T11:09:24.388Z,4.05
2022-12-01T11:12:05.297Z,3.86
2022-12-01T11:14:51.969Z,3.83
2022-12-01T11:17:31.389Z,3.74
2022-12-01T11:19:59.546Z,3.81
2022-12-01T11:22:30.679Z,3.84
2022-12-01T11:25:19.828Z,3.83
2022-12-01T11:27:54.316Z,3.85
2022-12-01T11:30:26.951Z,3.75
2022-12-01T11:33:00.268Z,3.79
2022-12-01T11:35:33.508Z,3.44
2022-12-01T11:40:54.784Z,3.81
2022-12-01T11:43:37.842Z,3.55
2022-12-01T11:46:08.113Z,2.90
2022-12-01T11:48:36.770Z,3.77
2022-12-01T11:51:15.830Z,3.82
2022-12-01T11:53:43.788Z,3.78
2022-12-01T11:56:23.943Z,3.75
2022-12-01T11:59:14.409Z,3.70
2022-12-01T12:02:15.978Z,3.68
2022-12-01T12:05:15.423Z,3.37
2022-12-01T12:08:06.858Z,3.41
2022-12-01T12:10:55.630Z,3.60
2022-12-01T12:13:58.045Z,3.64
2022-12-01T12:16:30.404Z,3.79
2022-12-01T12:19:07.168Z,3.90
2022-12-01T12:21:46.989Z,3.69
2022-12-01T12:24:49.791Z,3.98
2022-12-01T12:27:39.591Z,4.07
2022-12-01T12:30:45.239Z,4.05
2022-12-01T12:33:36.839Z,4.12
2022-12-01T12:36:27.322Z,4.05
2022-12-01T12:39:03.758Z,4.01
2022-12-01T12:41:37.343Z,3.95
2022-12-01T12:44:37.473Z,3.92
2022-12-01T12:47:25.674Z,3.96
2022-12-01T12:50:15.918Z,3.73
2022-12-01T12:52:48.147Z,4.01
2022-12-01T12:55:38.822Z,4.09
2022-12-01T12:58:13.215Z,4.17
2022-12-01T13:01:15.817Z,4.21
2022-12-01T13:04:19.429Z,4.22
2022-12-01T13:07:00.877Z,4.08
2022-12-01T13:09:47.119Z,4.08
2022-12-01T13:12:40.748Z,4.16
2022-12-01T13:15:18.806Z,4.00
2022-12-01T13:17:57.524Z,4.01
2022-12-01T13:20:30.143Z,4.01
2022-12-01T13:22:59.670Z,3.99
2022-12-01T13:25:39.616Z,3.64
2022-12-01T13:28:17.589Z,3.93
2022-12-01T13:30:58.488Z,3.56
2022-12-01T13:33:26.042Z,3.62
2022-12-01T13:36:22.519Z,3.62
2022-12-01T13:38:42.299Z,3.65
2022-12-01T13:41:23.125Z,3.60
2022-12-01T13:43:59.758Z,3.75
2022-12-01T13:46:44.645Z,3.79
2022-12-01T13:49:39.837Z,3.59
2022-12-01T13:52:17.604Z,3.43
2022-12-01T13:55:09.717Z,3.43
2022-12-01T13:57:38.564Z,3.51
2022-12-01T14:00:21.703Z,3.46
2022-12-01T14:03:17.618Z,3.36
2022-12-01T14:05:53.798Z,3.25
2022-12-01T14:08:23.471Z,3.29
2022-12-01T14:10:58.525Z,3.34
2022-12-01T14:13:27.879Z,3.43
2022-12-01T14:16:00.824Z,3.09
2022-12-01T14:18:38.476Z,3.37
2022-12-01T14:21:11.504Z,3.46
2022-12-01T14:24:05.531Z,3.38
2022-12-01T14:26:44.868Z,3.46
2022-12-01T14:29:31.168Z,3.52
2022-12-01T14:32:03.973Z,3.53
2022-12-01T14:34:34.594Z,3.48
2022-12-01T14:37:18.536Z,3.34
2022-12-01T14:40:06.110Z,3.54
2022-12-01T14:42:54.826Z,3.66
2022-12-01T14:45:28.056Z,3.61
2022-12-01T14:48:01.090Z,3.57
2022-12-01T14:50:46.616Z,3.16
2022-12-01T14:53:22.410Z,3.26
2022-12-01T14:55:56.329Z,3.29
2022-12-01T14:58:30.217Z,3.53
2022-12-01T15:01:00.319Z,3.45
2022-12-01T15:03:33.804Z,3.50
2022-12-01T15:06:01.952Z,3.43
2022-12-01T15:09:04.089Z,3.70
2022-12-01T15:11:25.777Z,3.74
2022-12-01T15:13:58.071Z,3.37
2022-12-01T15:16:30.894Z,3.54
2022-12-01T15:18:59.039Z,3.43
2022-12-01T15:21:29.505Z,3.66
2022-12-01T15:24:01.809Z,3.69
2022-12-01T15:26:32.697Z,3.79
2022-12-01T15:29:23.809Z,3.61
2022-12-01T15:31:56.513Z,3.67
2022-12-01T15:34:48.055Z,3.52
2022-12-01T15:37:24.779Z,3.56
2022-12-01T15:43:22.324Z,3.82
2022-12-01T15:45:52.182Z,3.92
2022-12-01T15:48:30.154Z,3.89
2022-12-01T15:51:06.286Z,3.92
2022-12-01T15:53:36.534Z,3.77
2022-12-01T15:56:09.803Z,3.58
2022-12-01T15:58:41.497Z,3.91
2022-12-01T16:01:15.448Z,3.80
2022-12-01T16:04:04.416Z,3.99
2022-12-01T16:06:35.801Z,3.95
2022-12-01T16:09:20.107Z,3.79
2022-12-01T16:12:05.190Z,3.97
2022-12-01T16:14:34.237Z,3.98
2022-12-01T16:17:03.424Z,3.68
2022-12-01T16:19:33.293Z,3.63
2022-12-01T16:22:13.944Z,3.90
2022-12-01T16:24:53.662Z,3.92
2022-12-01T16:27:24.813Z,3.02
2022-12-01T16:30:01.466Z,3.88
2022-12-01T16:32:43.990Z,3.89
2022-12-01T16:35:24.979Z,3.43
2022-12-01T16:37:52.996Z,3.81
2022-12-01T16:40:20.994Z,3.86
2022-12-01T16:42:51.184Z,3.87
2022-12-01T16:45:20.022Z,3.95
2022-12-01T16:47:48.962Z,3.97
2022-12-01T16:50:18.723Z,3.66
2022-12-01T16:52:46.460Z,3.82
2022-12-01T16:55:52.539Z,3.87
2022-12-01T16:58:21.468Z,3.89
2022-12-01T17:00:53.180Z,3.74
2022-12-01T17:03:25.423Z,3.78
2022-12-01T17:05:53.071Z,3.41
2022-12-01T17:08:20.731Z,3.78
2022-12-01T17:10:50.370Z,3.66
2022-12-01T17:13:19.095Z,2.99
2022-12-01T17:15:48.622Z,3.77
2022-12-01T17:18:17.519Z,3.61
2022-12-01T17:20:56.690Z,3.60
2022-12-01T17:23:23.976Z,3.74
2022-12-01T17:25:52.046Z,3.49
2022-12-01T17:28:19.310Z,3.94
2022-12-01T17:30:48.212Z,2.39
2022-12-01T17:33:15.508Z,4.03
2022-12-01T17:35:42.753Z,3.97
2022-12-01T17:38:10.219Z,3.40
2022-12-01T17:40:37.576Z,3.96
2022-12-01T17:43:07.641Z,3.92
2022-12-01T17:45:42.317Z,2.91
2022-12-01T17:48:10.284Z,3.87
2022-12-01T17:50:38.193Z,3.94
2022-12-01T17:53:05.455Z,4.04
2022-12-01T17:55:32.997Z,3.62
2022-12-01T17:58:00.097Z,3.82
2022-12-01T18:00:27.416Z,3.64
2022-12-01T18:02:54.655Z,4.04
2022-12-01T18:05:21.926Z,3.89
2022-12-01T18:07:49.200Z,3.62
2022-12-01T18:10:16.969Z,3.62
2022-12-01T18:12:44.420Z,3.09
2022-12-01T18:15:12.908Z,2.70
2022-12-01T18:17:40.054Z,2.62
2022-12-01T18:20:08.444Z,1.55
2022-12-01T18:22:35.559Z,2.14
2022-12-01T18:25:03.737Z,2.37
2022-12-01T18:27:31.060Z,1.73
2022-12-01T18:29:58.302Z,2.36
2022-12-01T18:32:25.619Z,2.25
2022-12-01T18:34:53.134Z,2.21
2022-12-01T18:37:20.478Z,2.30
2022-12-01T18:39:47.660Z,1.30
2022-12-01T18:42:15.054Z,2.15
2022-12-01T18:44:42.530Z,1.91
2022-12-01T18:47:09.856Z,2.06
2022-12-01T18:49:37.344Z,1.37
2022-12-01T18:52:05.030Z,2.25
2022-12-01T18:54:32.909Z,2.28
2022-12-01T18:57:00.083Z,1.89
2022-12-01T18:59:27.724Z,1.98
2022-12-01T19:01:55.317Z,2.15
2022-12-01T19:04:23.265Z,1.92
2022-12-01T19:06:50.865Z,2.10
2022-12-01T19:09:18.841Z,2.00
2022-12-01T19:11:46.835Z,2.08
2022-12-01T19:14:19.152Z,2.46
2022-12-01T19:16:47.308Z,2.22
2022-12-01T19:19:15.943Z,2.38
2022-12-01T19:21:45.312Z,3.09
2022-12-01T19:24:13.285Z,3.13
2022-12-01T19:26:41.187Z,3.08
2022-12-01T19:29:09.082Z,3.39
2022-12-01T19:31:36.694Z,3.34
2022-12-01T19:34:04.654Z,3.00
2022-12-01T19:36:32.461Z,3.30
2022-12-01T19:39:04.335Z,3.56
2022-12-01T19:41:38.874Z,3.61
2022-12-01T19:44:06.493Z,3.70
2022-12-01T19:46:34.568Z,3.69
2022-12-01T19:49:02.848Z,3.69
2022-12-01T19:51:39.078Z,3.45
2022-12-01T19:54:16.038Z,3.63
2022-12-01T19:56:44.116Z,2.75
2022-12-01T19:59:13.729Z,3.24
2022-12-01T20:01:41.989Z,3.52
2022-12-01T20:04:10.391Z,2.23
2022-12-01T20:06:38.098Z,3.63
2022-12-01T20:09:07.472Z,3.69
2022-12-01T20:11:36.335Z,3.40
2022-12-01T20:14:07.590Z,3.01
2022-12-01T20:16:35.429Z,3.33
2022-12-01T20:19:04.764Z,3.62
2022-12-01T20:21:35.367Z,3.53
2022-12-01T20:24:07.228Z,3.68
2022-12-01T20:26:41.156Z,3.58
2022-12-01T20:29:16.512Z,3.42
2022-12-01T20:31:44.755Z,3.75
2022-12-01T20:34:18.471Z,3.07
2022-12-01T20:36:47.849Z,3.21
2022-12-01T20:39:16.743Z,3.62
2022-12-01T20:41:45.048Z,3.69
2022-12-01T20:44:15.254Z,3.80
2022-12-01T20:46:45.843Z,3.67
2022-12-01T20:49:16.026Z,3.16
2022-12-01T20:51:43.860Z,3.39
2022-12-01T20:54:30.199Z,3.54
2022-12-01T20:56:59.114Z,3.14
2022-12-01T20:59:27.521Z,3.66
2022-12-01T21:01:55.534Z,3.74
2022-12-01T21:04:23.420Z,3.51
2022-12-01T21:06:50.634Z,3.73
2022-12-01T21:09:18.903Z,3.69
2022-12-01T21:12:06.621Z,3.79
2022-12-01T21:14:43.303Z,3.83
2022-12-01T21:17:35.703Z,3.31
2022-12-01T21:20:23.235Z,3.20
2022-12-01T21:22:51.567Z,3.37
2022-12-01T21:25:22.844Z,3.76
2022-12-01T21:27:50.771Z,2.39
2022-12-01T21:30:22.181Z,3.84
2022-12-01T21:32:55.095Z,3.72
2022-12-01T21:35:27.539Z,3.75
2022-12-01T21:38:07.437Z,3.79
2022-12-01T21:40:34.772Z,3.43
2022-12-01T21:43:20.669Z,3.73
2022-12-01T21:45:51.557Z,3.33
2022-12-01T21:48:24.604Z,2.75
2022-12-01T21:51:00.089Z,3.74
2022-12-01T21:53:36.480Z,3.74
2022-12-01T21:56:03.811Z,3.11
2022-12-01T21:58:37.098Z,3.29
2022-12-01T22:01:14.622Z,3.69
2022-12-01T22:03:45.258Z,3.72
2022-12-01T22:06:34.355Z,3.74
2022-12-01T22:09:12.255Z,3.75
2022-12-01T22:11:39.302Z,3.77
2022-12-01T22:14:21.135Z,3.80
2022-12-01T22:17:01.900Z,3.76
2022-12-01T22:19:30.719Z,3.79
2022-12-01T22:22:27.971Z,3.79
2022-12-01T22:25:26.005Z,3.80
2022-12-01T22:27:53.439Z,3.83
2022-12-01T22:30:22.921Z,3.85
2022-12-01T22:32:56.914Z,3.89
2022-12-01T22:35:33.041Z,3.65
2022-12-01T22:38:13.826Z,3.77
2022-12-01T22:40:40.879Z,3.76
2022-12-01T22:43:17.324Z,3.84
2022-12-01T22:45:45.640Z,3.86
2022-12-01T22:48:34.935Z,3.78
2022-12-01T22:51:15.184Z,3.90
2022-12-01T22:53:45.641Z,3.79
2022-12-01T22:56:28.021Z,3.73
2022-12-01T22:58:56.321Z,3.65
2022-12-01T23:01:32.896Z,3.52
2022-12-01T23:04:21.746Z,3.74
2022-12-01T23:06:54.590Z,3.64
2022-12-01T23:09:23.482Z,3.66
2022-12-01T23:12:05.656Z,3.41
2022-12-01T23:14:33.680Z,3.52
2022-12-01T23:17:07.449Z,3.70
2022-12-01T23:19:35.132Z,3.66
2022-12-01T23:22:02.755Z,3.72
2022-12-01T23:24:33.910Z,3.74
2022-12-01T23:27:01.479Z,2.40
2022-12-01T23:29:30.513Z,3.76
2022-12-01T23:31:58.518Z,3.70
2022-12-01T23:34:25.777Z,3.01
2022-12-01T23:36:53.139Z,3.70
2022-12-01T23:39:27.925Z,3.89
2022-12-01T23:41:55.739Z,3.68
2022-12-01T23:44:24.718Z,3.91
2022-12-01T23:46:55.540Z,3.64
2022-12-01T23:49:27.715Z,4.04
2022-12-01T23:51:59.155Z,4.04
2022-12-01T23:54:35.023Z,3.79
2022-12-01T23:57:04.766Z,4.00
2022-12-01T23:59:32.290Z,3.40
